Airfield :
LOGIN :

Register | Disclaimer

   EN    FR    IT 

 










Legend :    VFR   Marginal VFR   IFR   Intensive IFR   Very Intensive IFR
Visi :
Ceiling :
>= 8 km
>= 3000ft
5 to 8 km
1000 to 3000 ft
1500m to 5 km
500 to 1000 ft
800 to 1500m
200 to 500 ft
< 800m
< 200 ft
Symbols :   Thunderstorms  Fog  Heavy snow  Heavy precipitations  Wind > 20 kt
SIGMETs :     Misc.  Thunderstorms  Icing  Turbulence  Mountain Waves  Volcanic Ashes







- Airport Elevation : 16 ft
- IATA code : EAS


LESO - San Sebastian Fuenterrabia

CURRENT METAR :
  • 251430Z 04006KT 010V080 9999 FEW032 18/10 Q1028

EXPIRED METARs :
  • 251400Z 02005KT 340V060 9999 SCT032 17/10 Q1028
  • 251330Z 01006KT 330V070 9999 FEW032 17/10 Q1028
  • 251300Z 03006KT 300V070 9999 FEW033 18/10 Q1028
  • 251230Z 02006KT 320V060 9999 SCT030 18/11 Q1028
  • 251200Z 36007KT 300V050 9999 FEW033 17/10 Q1028
  • 251130Z 36006KT 320V070 9999 FEW035 17/11 Q1029

TAF TAF LESO
Valid from the 25 at 12:00 until the 26 at 12:00 UTC


251100Z 2512/2612 01005KT 9999 FEW030 TX24/2612Z TN11/2605Z
No reported NOTAMs for that airfield.



MET'MAP, your aeronautical weather chart ! - Copyright ORBIFLY December 2007 - Disclaimer

ORBIFLY MET'MAP TEAM :

Programming & Development : Alexandra Zaïnal
Concept & Development : Baudouin d'Aumeries
Co-Development & Prog : Marc-Olivier Méhu
Technical & hardware support : Manuel Goepfert

Contact : metmap@orbifly.com




SOURCES & CREDITS :

   NOAA